sensor_id;sensor_type;location;lat;lon;timestamp;P1;durP1;ratioP1;P2;durP2;ratioP2
13090;SDS011;6611;52.604;13.438;2022-12-07T00:02:15;7.43;;;4.17;;
13090;SDS011;6611;52.604;13.438;2022-12-07T00:07:17;9.63;;;5.13;;
13090;SDS011;6611;52.604;13.438;2022-12-07T00:12:20;8.30;;;4.20;;
13090;SDS011;6611;52.604;13.438;2022-12-07T00:17:22;8.17;;;4.77;;
13090;SDS011;6611;52.604;13.438;2022-12-07T00:22:24;8.93;;;5.03;;
13090;SDS011;6611;52.604;13.438;2022-12-07T00:27:28;8.47;;;4.60;;
13090;SDS011;6611;52.604;13.438;2022-12-07T00:32:29;7.67;;;4.67;;
13090;SDS011;6611;52.604;13.438;2022-12-07T00:37:31;7.57;;;4.63;;
13090;SDS011;6611;52.604;13.438;2022-12-07T00:42:34;7.30;;;4.57;;
13090;SDS011;6611;52.604;13.438;2022-12-07T00:47:36;7.33;;;4.77;;
13090;SDS011;6611;52.604;13.438;2022-12-07T00:52:37;9.37;;;5.23;;
13090;SDS011;6611;52.604;13.438;2022-12-07T00:57:40;7.40;;;4.40;;
13090;SDS011;6611;52.604;13.438;2022-12-07T01:02:42;10.10;;;4.80;;
13090;SDS011;6611;52.604;13.438;2022-12-07T01:07:44;5.80;;;4.03;;
13090;SDS011;6611;52.604;13.438;2022-12-07T01:12:47;7.93;;;4.77;;
13090;SDS011;6611;52.604;13.438;2022-12-07T01:17:49;8.13;;;4.63;;
13090;SDS011;6611;52.604;13.438;2022-12-07T01:22:51;6.27;;;4.17;;
13090;SDS011;6611;52.604;13.438;2022-12-07T01:27:54;9.40;;;4.63;;
13090;SDS011;6611;52.604;13.438;2022-12-07T01:32:55;6.83;;;4.10;;
13090;SDS011;6611;52.604;13.438;2022-12-07T01:37:57;6.00;;;3.90;;
13090;SDS011;6611;52.604;13.438;2022-12-07T01:43:00;6.13;;;4.07;;
13090;SDS011;6611;52.604;13.438;2022-12-07T01:48:02;7.17;;;4.40;;
13090;SDS011;6611;52.604;13.438;2022-12-07T01:53:06;7.63;;;4.40;;
13090;SDS011;6611;52.604;13.438;2022-12-07T01:58:11;8.50;;;4.13;;
13090;SDS011;6611;52.604;13.438;2022-12-07T02:03:15;6.03;;;3.70;;
13090;SDS011;6611;52.604;13.438;2022-12-07T02:08:20;6.07;;;3.47;;
13090;SDS011;6611;52.604;13.438;2022-12-07T02:13:24;6.73;;;3.53;;
13090;SDS011;6611;52.604;13.438;2022-12-07T02:18:33;5.93;;;3.73;;
13090;SDS011;6611;52.604;13.438;2022-12-07T02:23:54;5.37;;;3.57;;
13090;SDS011;6611;52.604;13.438;2022-12-07T02:29:22;6.53;;;3.60;;
13090;SDS011;6611;52.604;13.438;2022-12-07T02:34:29;5.10;;;3.53;;
13090;SDS011;6611;52.604;13.438;2022-12-07T02:39:37;6.33;;;4.03;;
13090;SDS011;6611;52.604;13.438;2022-12-07T02:44:45;7.23;;;4.00;;
13090;SDS011;6611;52.604;13.438;2022-12-07T02:49:48;6.17;;;3.80;;
13090;SDS011;6611;52.604;13.438;2022-12-07T02:54:50;5.50;;;2.90;;
13090;SDS011;6611;52.604;13.438;2022-12-07T02:59:57;5.77;;;4.03;;
13090;SDS011;6611;52.604;13.438;2022-12-07T03:05:12;5.23;;;3.50;;
13090;SDS011;6611;52.604;13.438;2022-12-07T03:10:22;5.80;;;3.70;;
13090;SDS011;6611;52.604;13.438;2022-12-07T03:15:31;4.80;;;3.20;;
13090;SDS011;6611;52.604;13.438;2022-12-07T03:20:36;6.63;;;3.60;;
13090;SDS011;6611;52.604;13.438;2022-12-07T03:25:40;5.97;;;4.07;;
13090;SDS011;6611;52.604;13.438;2022-12-07T03:30:47;6.63;;;3.93;;
13090;SDS011;6611;52.604;13.438;2022-12-07T03:35:54;7.50;;;4.67;;
13090;SDS011;6611;52.604;13.438;2022-12-07T03:40:59;8.13;;;4.33;;
13090;SDS011;6611;52.604;13.438;2022-12-07T03:46:08;8.23;;;4.77;;
13090;SDS011;6611;52.604;13.438;2022-12-07T03:51:20;9.23;;;5.20;;
13090;SDS011;6611;52.604;13.438;2022-12-07T03:56:26;11.77;;;6.17;;
13090;SDS011;6611;52.604;13.438;2022-12-07T04:01:31;10.23;;;5.87;;
13090;SDS011;6611;52.604;13.438;2022-12-07T04:06:33;10.10;;;5.83;;
13090;SDS011;6611;52.604;13.438;2022-12-07T04:11:35;12.13;;;6.43;;
13090;SDS011;6611;52.604;13.438;2022-12-07T04:16:38;13.77;;;7.43;;
13090;SDS011;6611;52.604;13.438;2022-12-07T04:21:40;13.20;;;7.23;;
13090;SDS011;6611;52.604;13.438;2022-12-07T04:26:42;11.07;;;5.57;;
13090;SDS011;6611;52.604;13.438;2022-12-07T04:31:45;13.90;;;7.37;;
13090;SDS011;6611;52.604;13.438;2022-12-07T04:36:47;11.33;;;6.80;;
13090;SDS011;6611;52.604;13.438;2022-12-07T04:41:49;10.63;;;6.87;;
13090;SDS011;6611;52.604;13.438;2022-12-07T04:46:52;12.23;;;6.60;;
13090;SDS011;6611;52.604;13.438;2022-12-07T04:51:54;13.50;;;7.13;;
13090;SDS011;6611;52.604;13.438;2022-12-07T04:56:55;13.73;;;7.37;;
13090;SDS011;6611;52.604;13.438;2022-12-07T05:01:58;14.20;;;7.77;;
13090;SDS011;6611;52.604;13.438;2022-12-07T05:07:00;15.43;;;8.57;;
13090;SDS011;6611;52.604;13.438;2022-12-07T05:12:02;18.67;;;9.83;;
13090;SDS011;6611;52.604;13.438;2022-12-07T05:17:05;16.87;;;9.00;;
13090;SDS011;6611;52.604;13.438;2022-12-07T05:22:07;16.70;;;8.67;;
13090;SDS011;6611;52.604;13.438;2022-12-07T05:27:08;17.37;;;9.43;;
13090;SDS011;6611;52.604;13.438;2022-12-07T05:32:11;18.17;;;9.87;;
13090;SDS011;6611;52.604;13.438;2022-12-07T05:37:13;17.70;;;8.43;;
13090;SDS011;6611;52.604;13.438;2022-12-07T05:42:15;20.70;;;10.60;;
13090;SDS011;6611;52.604;13.438;2022-12-07T05:47:18;20.77;;;10.87;;
13090;SDS011;6611;52.604;13.438;2022-12-07T05:52:20;19.50;;;10.70;;
13090;SDS011;6611;52.604;13.438;2022-12-07T05:57:22;22.30;;;10.13;;
13090;SDS011;6611;52.604;13.438;2022-12-07T06:02:25;17.90;;;10.13;;
13090;SDS011;6611;52.604;13.438;2022-12-07T06:07:27;17.00;;;9.50;;
13090;SDS011;6611;52.604;13.438;2022-12-07T06:12:28;19.17;;;9.47;;
13090;SDS011;6611;52.604;13.438;2022-12-07T06:17:39;20.20;;;9.20;;
13090;SDS011;6611;52.604;13.438;2022-12-07T06:22:41;18.20;;;10.13;;
13090;SDS011;6611;52.604;13.438;2022-12-07T06:27:43;16.37;;;9.37;;
13090;SDS011;6611;52.604;13.438;2022-12-07T06:32:46;16.37;;;8.97;;
13090;SDS011;6611;52.604;13.438;2022-12-07T06:37:47;17.43;;;8.93;;
13090;SDS011;6611;52.604;13.438;2022-12-07T06:42:49;17.60;;;8.80;;
13090;SDS011;6611;52.604;13.438;2022-12-07T06:47:52;14.40;;;7.27;;
13090;SDS011;6611;52.604;13.438;2022-12-07T06:52:54;15.77;;;8.63;;
13090;SDS011;6611;52.604;13.438;2022-12-07T06:57:55;16.60;;;8.23;;
13090;SDS011;6611;52.604;13.438;2022-12-07T07:02:59;17.60;;;9.17;;
13090;SDS011;6611;52.604;13.438;2022-12-07T07:08:01;12.83;;;7.07;;
13090;SDS011;6611;52.604;13.438;2022-12-07T07:13:03;11.93;;;8.03;;
13090;SDS011;6611;52.604;13.438;2022-12-07T07:18:07;15.07;;;8.93;;
13090;SDS011;6611;52.604;13.438;2022-12-07T07:23:08;18.67;;;8.57;;
13090;SDS011;6611;52.604;13.438;2022-12-07T07:28:10;13.53;;;8.10;;
13090;SDS011;6611;52.604;13.438;2022-12-07T07:33:13;16.17;;;8.17;;
13090;SDS011;6611;52.604;13.438;2022-12-07T07:38:15;14.90;;;8.20;;
13090;SDS011;6611;52.604;13.438;2022-12-07T07:43:16;11.67;;;7.07;;
13090;SDS011;6611;52.604;13.438;2022-12-07T07:48:19;11.50;;;6.63;;
13090;SDS011;6611;52.604;13.438;2022-12-07T07:53:22;9.40;;;5.77;;
13090;SDS011;6611;52.604;13.438;2022-12-07T07:58:25;10.80;;;6.23;;
13090;SDS011;6611;52.604;13.438;2022-12-07T08:03:28;9.10;;;5.10;;
13090;SDS011;6611;52.604;13.438;2022-12-07T08:08:29;7.27;;;4.30;;
13090;SDS011;6611;52.604;13.438;2022-12-07T08:13:31;7.97;;;4.47;;
13090;SDS011;6611;52.604;13.438;2022-12-07T08:18:35;6.00;;;4.17;;
13090;SDS011;6611;52.604;13.438;2022-12-07T08:23:37;9.43;;;5.40;;
13090;SDS011;6611;52.604;13.438;2022-12-07T08:28:39;6.70;;;3.97;;
13090;SDS011;6611;52.604;13.438;2022-12-07T08:33:44;5.57;;;3.83;;
13090;SDS011;6611;52.604;13.438;2022-12-07T08:38:46;5.37;;;3.40;;
13090;SDS011;6611;52.604;13.438;2022-12-07T08:43:47;6.20;;;4.40;;
13090;SDS011;6611;52.604;13.438;2022-12-07T08:48:52;6.97;;;3.93;;
13090;SDS011;6611;52.604;13.438;2022-12-07T08:53:57;4.90;;;3.13;;
13090;SDS011;6611;52.604;13.438;2022-12-07T08:59:02;4.20;;;3.33;;
13090;SDS011;6611;52.604;13.438;2022-12-07T09:04:06;5.40;;;2.93;;
13090;SDS011;6611;52.604;13.438;2022-12-07T09:09:08;3.57;;;2.60;;
13090;SDS011;6611;52.604;13.438;2022-12-07T09:14:12;5.43;;;2.70;;
13090;SDS011;6611;52.604;13.438;2022-12-07T09:19:15;2.50;;;2.20;;
13090;SDS011;6611;52.604;13.438;2022-12-07T09:24:19;2.43;;;2.00;;
13090;SDS011;6611;52.604;13.438;2022-12-07T09:29:21;2.87;;;1.97;;
13090;SDS011;6611;52.604;13.438;2022-12-07T09:34:24;1.40;;;1.30;;
13090;SDS011;6611;52.604;13.438;2022-12-07T09:39:26;2.23;;;1.60;;
13090;SDS011;6611;52.604;13.438;2022-12-07T09:44:28;2.03;;;1.50;;
13090;SDS011;6611;52.604;13.438;2022-12-07T09:49:31;2.53;;;1.70;;
13090;SDS011;6611;52.604;13.438;2022-12-07T09:54:34;2.13;;;1.50;;
13090;SDS011;6611;52.604;13.438;2022-12-07T09:59:37;3.93;;;1.60;;
13090;SDS011;6611;52.604;13.438;2022-12-07T10:04:41;1.73;;;1.40;;
13090;SDS011;6611;52.604;13.438;2022-12-07T10:09:45;2.07;;;1.80;;
13090;SDS011;6611;52.604;13.438;2022-12-07T10:14:54;1.50;;;1.37;;
13090;SDS011;6611;52.604;13.438;2022-12-07T10:20:15;2.00;;;1.50;;
13090;SDS011;6611;52.604;13.438;2022-12-07T10:25:19;2.87;;;1.33;;
13090;SDS011;6611;52.604;13.438;2022-12-07T10:30:22;1.67;;;1.30;;
13090;SDS011;6611;52.604;13.438;2022-12-07T10:35:26;1.90;;;1.53;;
13090;SDS011;6611;52.604;13.438;2022-12-07T10:40:32;0.70;;;0.70;;
13090;SDS011;6611;52.604;13.438;2022-12-07T10:45:35;2.10;;;1.20;;
13090;SDS011;6611;52.604;13.438;2022-12-07T10:50:52;1.17;;;1.07;;
13090;SDS011;6611;52.604;13.438;2022-12-07T10:56:11;1.83;;;1.33;;
13090;SDS011;6611;52.604;13.438;2022-12-07T11:01:47;2.90;;;2.60;;
13090;SDS011;6611;52.604;13.438;2022-12-07T11:06:59;2.57;;;1.70;;
13090;SDS011;6611;52.604;13.438;2022-12-07T11:12:07;2.40;;;2.07;;
13090;SDS011;6611;52.604;13.438;2022-12-07T11:17:17;2.80;;;1.83;;
13090;SDS011;6611;52.604;13.438;2022-12-07T11:22:28;3.80;;;1.73;;
13090;SDS011;6611;52.604;13.438;2022-12-07T11:27:39;3.30;;;2.20;;
13090;SDS011;6611;52.604;13.438;2022-12-07T11:32:59;3.10;;;2.13;;
13090;SDS011;6611;52.604;13.438;2022-12-07T11:38:11;1.73;;;1.63;;
13090;SDS011;6611;52.604;13.438;2022-12-07T11:43:19;2.93;;;2.03;;
13090;SDS011;6611;52.604;13.438;2022-12-07T11:48:24;9.87;;;5.80;;
13090;SDS011;6611;52.604;13.438;2022-12-07T11:53:35;2.67;;;2.07;;
13090;SDS011;6611;52.604;13.438;2022-12-07T11:58:46;2.67;;;2.03;;
13090;SDS011;6611;52.604;13.438;2022-12-07T12:03:50;3.50;;;2.20;;
13090;SDS011;6611;52.604;13.438;2022-12-07T12:08:56;3.63;;;2.30;;
13090;SDS011;6611;52.604;13.438;2022-12-07T12:14:14;2.33;;;1.73;;
13090;SDS011;6611;52.604;13.438;2022-12-07T12:19:30;4.13;;;2.30;;
13090;SDS011;6611;52.604;13.438;2022-12-07T12:24:37;3.17;;;2.10;;
13090;SDS011;6611;52.604;13.438;2022-12-07T12:29:41;3.37;;;2.00;;
13090;SDS011;6611;52.604;13.438;2022-12-07T12:34:58;5.30;;;2.23;;
13090;SDS011;6611;52.604;13.438;2022-12-07T12:46:04;3.33;;;2.20;;
13090;SDS011;6611;52.604;13.438;2022-12-07T12:51:39;3.77;;;1.97;;
13090;SDS011;6611;52.604;13.438;2022-12-07T12:56:43;2.40;;;2.20;;
13090;SDS011;6611;52.604;13.438;2022-12-07T13:01:53;3.23;;;2.30;;
13090;SDS011;6611;52.604;13.438;2022-12-07T13:06:57;3.37;;;1.53;;
13090;SDS011;6611;52.604;13.438;2022-12-07T13:12:00;2.27;;;1.67;;
13090;SDS011;6611;52.604;13.438;2022-12-07T13:17:08;2.17;;;1.40;;
13090;SDS011;6611;52.604;13.438;2022-12-07T13:27:51;2.33;;;1.67;;
13090;SDS011;6611;52.604;13.438;2022-12-07T13:32:59;3.63;;;1.80;;
13090;SDS011;6611;52.604;13.438;2022-12-07T13:38:02;2.40;;;1.87;;
13090;SDS011;6611;52.604;13.438;2022-12-07T13:43:12;2.10;;;1.27;;
13090;SDS011;6611;52.604;13.438;2022-12-07T13:48:20;4.30;;;1.40;;
13090;SDS011;6611;52.604;13.438;2022-12-07T13:53:25;2.00;;;1.40;;
13090;SDS011;6611;52.604;13.438;2022-12-07T13:58:30;2.10;;;1.60;;
13090;SDS011;6611;52.604;13.438;2022-12-07T14:03:35;2.43;;;1.20;;
13090;SDS011;6611;52.604;13.438;2022-12-07T14:08:38;1.83;;;1.23;;
13090;SDS011;6611;52.604;13.438;2022-12-07T14:13:40;2.17;;;1.03;;
13090;SDS011;6611;52.604;13.438;2022-12-07T14:18:52;1.20;;;1.10;;
13090;SDS011;6611;52.604;13.438;2022-12-07T14:29:31;2.30;;;1.43;;
13090;SDS011;6611;52.604;13.438;2022-12-07T14:34:35;6.87;;;1.57;;
13090;SDS011;6611;52.604;13.438;2022-12-07T14:39:37;5.63;;;1.83;;
13090;SDS011;6611;52.604;13.438;2022-12-07T14:44:38;2.60;;;1.50;;
13090;SDS011;6611;52.604;13.438;2022-12-07T14:49:41;1.83;;;1.20;;
13090;SDS011;6611;52.604;13.438;2022-12-07T14:54:43;3.20;;;1.53;;
13090;SDS011;6611;52.604;13.438;2022-12-07T14:59:45;2.03;;;1.57;;
13090;SDS011;6611;52.604;13.438;2022-12-07T15:04:48;2.17;;;1.40;;
13090;SDS011;6611;52.604;13.438;2022-12-07T15:09:49;4.10;;;1.77;;
13090;SDS011;6611;52.604;13.438;2022-12-07T15:14:51;2.93;;;2.13;;
13090;SDS011;6611;52.604;13.438;2022-12-07T15:19:54;6.20;;;2.03;;
13090;SDS011;6611;52.604;13.438;2022-12-07T15:24:56;4.30;;;1.67;;
13090;SDS011;6611;52.604;13.438;2022-12-07T15:29:57;1.50;;;1.00;;
13090;SDS011;6611;52.604;13.438;2022-12-07T15:35:00;1.83;;;1.20;;
13090;SDS011;6611;52.604;13.438;2022-12-07T15:40:02;2.77;;;1.33;;
13090;SDS011;6611;52.604;13.438;2022-12-07T15:45:05;3.37;;;1.70;;
13090;SDS011;6611;52.604;13.438;2022-12-07T15:50:12;1.73;;;1.10;;
13090;SDS011;6611;52.604;13.438;2022-12-07T15:55:16;4.23;;;1.60;;
13090;SDS011;6611;52.604;13.438;2022-12-07T16:00:18;3.13;;;1.43;;
13090;SDS011;6611;52.604;13.438;2022-12-07T16:05:22;2.77;;;1.37;;
13090;SDS011;6611;52.604;13.438;2022-12-07T16:10:23;1.80;;;0.80;;
13090;SDS011;6611;52.604;13.438;2022-12-07T16:15:25;1.60;;;0.97;;
13090;SDS011;6611;52.604;13.438;2022-12-07T16:20:28;1.70;;;1.37;;
13090;SDS011;6611;52.604;13.438;2022-12-07T16:25:30;5.13;;;1.80;;
13090;SDS011;6611;52.604;13.438;2022-12-07T16:30:31;3.63;;;1.77;;
13090;SDS011;6611;52.604;13.438;2022-12-07T16:35:37;1.73;;;1.03;;
13090;SDS011;6611;52.604;13.438;2022-12-07T16:40:40;4.00;;;1.53;;
13090;SDS011;6611;52.604;13.438;2022-12-07T16:45:42;4.27;;;1.60;;
13090;SDS011;6611;52.604;13.438;2022-12-07T16:50:45;3.30;;;1.33;;
13090;SDS011;6611;52.604;13.438;2022-12-07T16:55:48;3.53;;;1.80;;
13090;SDS011;6611;52.604;13.438;2022-12-07T17:00:49;2.37;;;1.50;;
13090;SDS011;6611;52.604;13.438;2022-12-07T17:05:52;1.50;;;1.40;;
13090;SDS011;6611;52.604;13.438;2022-12-07T17:10:54;1.30;;;1.20;;
13090;SDS011;6611;52.604;13.438;2022-12-07T17:15:57;3.90;;;1.37;;
13090;SDS011;6611;52.604;13.438;2022-12-07T17:21:02;3.27;;;1.47;;
13090;SDS011;6611;52.604;13.438;2022-12-07T17:26:06;2.93;;;1.27;;
13090;SDS011;6611;52.604;13.438;2022-12-07T17:31:09;2.30;;;1.43;;
13090;SDS011;6611;52.604;13.438;2022-12-07T17:36:15;5.93;;;1.50;;
13090;SDS011;6611;52.604;13.438;2022-12-07T17:41:19;4.00;;;1.30;;
13090;SDS011;6611;52.604;13.438;2022-12-07T17:46:36;2.33;;;1.30;;
13090;SDS011;6611;52.604;13.438;2022-12-07T17:51:39;2.17;;;1.30;;
13090;SDS011;6611;52.604;13.438;2022-12-07T17:56:58;2.00;;;1.10;;
13090;SDS011;6611;52.604;13.438;2022-12-07T18:02:00;3.03;;;1.43;;
13090;SDS011;6611;52.604;13.438;2022-12-07T18:07:03;2.10;;;1.30;;
13090;SDS011;6611;52.604;13.438;2022-12-07T18:12:06;2.73;;;1.53;;
13090;SDS011;6611;52.604;13.438;2022-12-07T18:17:08;4.17;;;1.87;;
13090;SDS011;6611;52.604;13.438;2022-12-07T18:22:11;2.83;;;1.77;;
13090;SDS011;6611;52.604;13.438;2022-12-07T18:27:12;3.00;;;1.57;;
13090;SDS011;6611;52.604;13.438;2022-12-07T18:32:14;1.90;;;1.50;;
13090;SDS011;6611;52.604;13.438;2022-12-07T18:37:17;3.13;;;1.90;;
13090;SDS011;6611;52.604;13.438;2022-12-07T18:42:19;3.00;;;2.03;;
13090;SDS011;6611;52.604;13.438;2022-12-07T18:47:20;1.70;;;1.40;;
13090;SDS011;6611;52.604;13.438;2022-12-07T18:52:24;4.73;;;2.20;;
13090;SDS011;6611;52.604;13.438;2022-12-07T18:57:25;3.13;;;1.73;;
13090;SDS011;6611;52.604;13.438;2022-12-07T19:02:27;2.80;;;1.60;;
13090;SDS011;6611;52.604;13.438;2022-12-07T19:07:30;2.43;;;1.87;;
13090;SDS011;6611;52.604;13.438;2022-12-07T19:12:32;5.53;;;2.53;;
13090;SDS011;6611;52.604;13.438;2022-12-07T19:17:34;6.17;;;2.37;;
13090;SDS011;6611;52.604;13.438;2022-12-07T19:22:38;3.13;;;1.80;;
13090;SDS011;6611;52.604;13.438;2022-12-07T19:27:39;3.83;;;2.00;;
13090;SDS011;6611;52.604;13.438;2022-12-07T19:32:41;1.83;;;1.67;;
13090;SDS011;6611;52.604;13.438;2022-12-07T19:37:44;2.33;;;1.80;;
13090;SDS011;6611;52.604;13.438;2022-12-07T19:42:46;3.67;;;1.83;;
13090;SDS011;6611;52.604;13.438;2022-12-07T19:47:48;3.27;;;1.90;;
13090;SDS011;6611;52.604;13.438;2022-12-07T19:52:51;3.97;;;2.10;;
13090;SDS011;6611;52.604;13.438;2022-12-07T19:57:52;2.17;;;1.57;;
13090;SDS011;6611;52.604;13.438;2022-12-07T20:02:54;2.33;;;1.27;;
13090;SDS011;6611;52.604;13.438;2022-12-07T20:07:57;1.97;;;1.53;;
13090;SDS011;6611;52.604;13.438;2022-12-07T20:12:59;3.03;;;1.97;;
13090;SDS011;6611;52.604;13.438;2022-12-07T20:18:18;5.80;;;1.57;;
13090;SDS011;6611;52.604;13.438;2022-12-07T20:23:21;1.90;;;1.53;;
13090;SDS011;6611;52.604;13.438;2022-12-07T20:28:24;2.47;;;1.40;;
13090;SDS011;6611;52.604;13.438;2022-12-07T20:33:26;5.97;;;2.17;;
13090;SDS011;6611;52.604;13.438;2022-12-07T20:38:30;2.60;;;1.80;;
13090;SDS011;6611;52.604;13.438;2022-12-07T20:43:33;4.47;;;2.20;;
13090;SDS011;6611;52.604;13.438;2022-12-07T20:48:34;4.13;;;2.20;;
13090;SDS011;6611;52.604;13.438;2022-12-07T20:53:37;4.10;;;2.13;;
13090;SDS011;6611;52.604;13.438;2022-12-07T20:58:39;2.83;;;1.67;;
13090;SDS011;6611;52.604;13.438;2022-12-07T21:03:41;3.17;;;1.87;;
13090;SDS011;6611;52.604;13.438;2022-12-07T21:08:45;5.93;;;2.50;;
13090;SDS011;6611;52.604;13.438;2022-12-07T21:13:47;3.23;;;2.40;;
13090;SDS011;6611;52.604;13.438;2022-12-07T21:18:49;5.80;;;2.50;;
13090;SDS011;6611;52.604;13.438;2022-12-07T21:23:53;3.93;;;2.80;;
13090;SDS011;6611;52.604;13.438;2022-12-07T21:28:55;4.17;;;3.20;;
13090;SDS011;6611;52.604;13.438;2022-12-07T21:33:57;5.07;;;2.93;;
13090;SDS011;6611;52.604;13.438;2022-12-07T21:39:02;5.13;;;3.27;;
13090;SDS011;6611;52.604;13.438;2022-12-07T21:44:05;5.77;;;3.33;;
13090;SDS011;6611;52.604;13.438;2022-12-07T21:49:10;5.57;;;3.50;;
13090;SDS011;6611;52.604;13.438;2022-12-07T21:54:14;6.10;;;2.90;;
13090;SDS011;6611;52.604;13.438;2022-12-07T21:59:16;3.70;;;2.80;;
13090;SDS011;6611;52.604;13.438;2022-12-07T22:04:20;4.83;;;2.67;;
13090;SDS011;6611;52.604;13.438;2022-12-07T22:09:24;5.83;;;2.47;;
13090;SDS011;6611;52.604;13.438;2022-12-07T22:14:26;5.37;;;3.07;;
13090;SDS011;6611;52.604;13.438;2022-12-07T22:19:45;6.23;;;3.50;;
13090;SDS011;6611;52.604;13.438;2022-12-07T22:24:48;5.47;;;3.50;;
13090;SDS011;6611;52.604;13.438;2022-12-07T22:29:51;6.47;;;3.27;;
13090;SDS011;6611;52.604;13.438;2022-12-07T22:34:52;5.93;;;3.33;;
13090;SDS011;6611;52.604;13.438;2022-12-07T22:39:55;4.63;;;3.20;;
13090;SDS011;6611;52.604;13.438;2022-12-07T22:44:57;4.73;;;3.53;;
13090;SDS011;6611;52.604;13.438;2022-12-07T22:49:59;5.93;;;3.83;;
13090;SDS011;6611;52.604;13.438;2022-12-07T22:55:02;4.17;;;2.77;;
13090;SDS011;6611;52.604;13.438;2022-12-07T23:00:04;5.23;;;3.60;;
13090;SDS011;6611;52.604;13.438;2022-12-07T23:05:08;6.47;;;3.37;;
13090;SDS011;6611;52.604;13.438;2022-12-07T23:10:11;6.40;;;3.30;;
13090;SDS011;6611;52.604;13.438;2022-12-07T23:15:13;6.67;;;3.13;;
13090;SDS011;6611;52.604;13.438;2022-12-07T23:20:15;5.90;;;3.87;;
13090;SDS011;6611;52.604;13.438;2022-12-07T23:25:18;3.87;;;2.70;;
13090;SDS011;6611;52.604;13.438;2022-12-07T23:30:20;7.20;;;3.43;;
13090;SDS011;6611;52.604;13.438;2022-12-07T23:35:22;8.50;;;3.50;;
13090;SDS011;6611;52.604;13.438;2022-12-07T23:40:25;6.73;;;3.10;;
13090;SDS011;6611;52.604;13.438;2022-12-07T23:45:27;6.77;;;3.30;;
13090;SDS011;6611;52.604;13.438;2022-12-07T23:50:28;5.63;;;3.27;;
13090;SDS011;6611;52.604;13.438;2022-12-07T23:55:31;7.97;;;3.17;;
